createdAt,value
2022-12-18T00:01:16.666Z,3.87
2022-12-18T00:03:45.165Z,4.23
2022-12-18T00:06:15.681Z,4.13
2022-12-18T00:08:43.508Z,4.60
2022-12-18T00:11:13.118Z,3.50
2022-12-18T00:13:41.297Z,3.70
2022-12-18T00:16:10.548Z,3.80
2022-12-18T00:18:38.708Z,4.10
2022-12-18T00:21:07.539Z,4.33
2022-12-18T00:23:36.128Z,4.23
2022-12-18T00:26:04.627Z,4.00
2022-12-18T00:28:33.646Z,3.20
2022-12-18T00:31:02.294Z,3.83
2022-12-18T00:33:30.178Z,5.03
2022-12-18T00:36:01.915Z,4.97
2022-12-18T00:38:29.600Z,4.00
2022-12-18T00:40:57.252Z,3.70
2022-12-18T00:43:24.072Z,3.73
2022-12-18T00:45:53.239Z,3.70
2022-12-18T00:48:20.967Z,5.50
2022-12-18T00:50:49.675Z,4.40
2022-12-18T00:53:17.418Z,5.80
2022-12-18T00:55:45.444Z,4.20
2022-12-18T00:58:14.190Z,5.40
2022-12-18T01:00:42.160Z,4.77
2022-12-18T01:03:14.826Z,4.87
2022-12-18T01:05:45.112Z,5.43
2022-12-18T01:08:13.019Z,5.20
2022-12-18T01:10:42.273Z,4.23
2022-12-18T01:13:10.191Z,4.60
2022-12-18T01:15:37.964Z,4.17
2022-12-18T01:18:05.595Z,4.33
2022-12-18T01:20:34.779Z,5.17
2022-12-18T01:23:02.367Z,4.97
2022-12-18T01:25:48.280Z,4.33
2022-12-18T01:28:15.909Z,4.87
2022-12-18T01:30:43.593Z,5.37
2022-12-18T01:33:11.446Z,5.37
2022-12-18T01:35:43.759Z,3.97
2022-12-18T01:38:11.424Z,4.67
2022-12-18T01:40:39.363Z,4.43
2022-12-18T01:43:07.002Z,3.67
2022-12-18T01:45:34.720Z,3.43
2022-12-18T01:48:03.763Z,3.70
2022-12-18T01:50:34.683Z,5.27
2022-12-18T01:53:05.639Z,4.67
2022-12-18T01:55:37.372Z,3.87
2022-12-18T01:58:05.497Z,4.17
2022-12-18T02:00:33.445Z,3.43
2022-12-18T02:03:01.766Z,4.40
2022-12-18T02:05:37.035Z,3.87
2022-12-18T02:08:11.359Z,3.47
2022-12-18T02:10:43.206Z,3.73
2022-12-18T02:13:14.776Z,4.23
2022-12-18T02:15:44.320Z,4.17
2022-12-18T02:18:13.063Z,4.00
2022-12-18T02:20:44.023Z,3.97
2022-12-18T02:23:23.525Z,3.40
2022-12-18T02:26:04.202Z,3.07
2022-12-18T02:28:33.072Z,3.30
2022-12-18T02:31:24.280Z,3.37
2022-12-18T02:33:55.259Z,4.30
2022-12-18T02:36:23.826Z,5.57
2022-12-18T02:38:52.765Z,3.93
2022-12-18T02:41:22.811Z,3.93
2022-12-18T02:43:50.809Z,3.00
2022-12-18T02:46:28.413Z,4.37
2022-12-18T02:48:59.485Z,3.27
2022-12-18T02:51:31.036Z,4.60
2022-12-18T02:54:02.973Z,3.43
2022-12-18T02:56:35.590Z,3.90
2022-12-18T02:59:07.770Z,3.77
2022-12-18T03:01:47.004Z,3.87
2022-12-18T03:04:17.197Z,4.07
2022-12-18T03:06:48.408Z,3.47
2022-12-18T03:09:19.656Z,3.37
2022-12-18T03:12:05.314Z,3.17
2022-12-18T03:14:33.918Z,3.47
2022-12-18T03:17:03.308Z,4.20
2022-12-18T03:19:33.782Z,4.33
2022-12-18T03:22:04.322Z,3.53
2022-12-18T03:24:40.825Z,4.53
2022-12-18T03:27:12.603Z,3.27
2022-12-18T03:29:42.731Z,3.17
2022-12-18T03:32:12.682Z,3.90
2022-12-18T03:34:42.102Z,3.97
2022-12-18T03:37:28.514Z,3.60
2022-12-18T03:39:56.269Z,3.23
2022-12-18T03:42:29.143Z,4.07
2022-12-18T03:45:10.243Z,4.87
2022-12-18T03:47:41.962Z,3.63
2022-12-18T03:50:13.339Z,3.07
2022-12-18T03:52:44.684Z,3.23
2022-12-18T03:55:13.218Z,3.93
2022-12-18T03:57:44.357Z,3.73
2022-12-18T04:00:13.664Z,3.60
2022-12-18T04:02:44.895Z,3.73
2022-12-18T04:05:16.697Z,3.33
2022-12-18T04:07:46.951Z,4.67
2022-12-18T04:10:16.447Z,3.60
2022-12-18T04:12:45.667Z,4.93
2022-12-18T04:15:15.220Z,4.00
2022-12-18T04:17:48.577Z,4.13
2022-12-18T04:20:18.167Z,3.90
2022-12-18T04:22:46.768Z,4.03
2022-12-18T04:25:14.971Z,3.37
2022-12-18T04:27:55.790Z,3.80
2022-12-18T04:30:23.819Z,3.20
2022-12-18T04:32:52.459Z,4.07
2022-12-18T04:35:21.315Z,4.03
2022-12-18T04:37:48.936Z,4.63
2022-12-18T04:40:17.389Z,4.50
2022-12-18T04:42:47.809Z,4.97
2022-12-18T04:45:16.870Z,4.57
2022-12-18T04:47:44.614Z,4.83
2022-12-18T04:50:12.269Z,4.10
2022-12-18T04:52:39.848Z,4.33
2022-12-18T04:55:07.542Z,5.27
2022-12-18T04:57:35.380Z,4.43
2022-12-18T05:00:03.003Z,4.93
2022-12-18T05:02:32.021Z,4.57
2022-12-18T05:04:59.703Z,4.37
2022-12-18T05:07:27.360Z,3.93
2022-12-18T05:09:55.063Z,4.87
2022-12-18T05:12:22.665Z,4.80
2022-12-18T05:14:51.387Z,4.53
2022-12-18T05:17:19.073Z,5.07
2022-12-18T05:19:47.993Z,5.10
2022-12-18T05:22:15.738Z,4.77
2022-12-18T05:24:43.538Z,4.30
2022-12-18T05:27:11.457Z,4.57
2022-12-18T05:29:39.041Z,4.17
2022-12-18T05:32:06.722Z,3.83
2022-12-18T05:34:34.664Z,4.00
2022-12-18T05:37:03.543Z,4.13
2022-12-18T05:39:31.591Z,3.00
2022-12-18T05:41:59.167Z,3.50
2022-12-18T05:44:26.828Z,3.97
2022-12-18T05:46:54.575Z,2.50
2022-12-18T05:49:22.210Z,3.63
2022-12-18T05:51:49.872Z,3.10
2022-12-18T05:54:18.726Z,4.03
2022-12-18T05:56:48.811Z,4.07
2022-12-18T05:59:16.976Z,3.10
2022-12-18T06:01:45.503Z,3.67
2022-12-18T06:04:13.567Z,3.13
2022-12-18T06:06:41.334Z,3.73
2022-12-18T06:09:10.438Z,3.20
2022-12-18T06:11:58.306Z,2.83
2022-12-18T06:14:25.912Z,3.37
2022-12-18T06:16:53.530Z,2.80
2022-12-18T06:19:21.199Z,3.33
2022-12-18T06:21:50.144Z,2.77
2022-12-18T06:24:17.982Z,3.20
2022-12-18T06:26:45.639Z,3.73
2022-12-18T06:29:14.513Z,3.97
2022-12-18T06:31:42.261Z,2.87
2022-12-18T06:34:09.918Z,3.77
2022-12-18T06:36:37.486Z,3.67
2022-12-18T06:39:05.828Z,3.27
2022-12-18T06:41:34.046Z,3.93
2022-12-18T06:44:01.619Z,3.00
2022-12-18T06:46:30.520Z,3.37
2022-12-18T06:48:58.105Z,4.27
2022-12-18T06:51:26.107Z,3.37
2022-12-18T06:53:53.807Z,3.30
2022-12-18T06:56:21.467Z,2.70
2022-12-18T06:58:49.157Z,3.57
2022-12-18T07:01:16.906Z,3.47
2022-12-18T07:03:46.190Z,3.43
2022-12-18T07:06:15.162Z,3.30
2022-12-18T07:08:42.842Z,2.80
2022-12-18T07:11:10.486Z,2.80
2022-12-18T07:13:38.755Z,3.47
2022-12-18T07:16:15.001Z,2.87
2022-12-18T07:18:46.359Z,3.90
2022-12-18T07:21:14.825Z,2.60
2022-12-18T07:23:43.255Z,3.07
2022-12-18T07:26:12.889Z,3.40
2022-12-18T07:28:41.208Z,3.60
2022-12-18T07:31:09.763Z,3.80
2022-12-18T07:33:37.967Z,2.47
2022-12-18T07:36:08.570Z,2.57
2022-12-18T07:38:36.935Z,3.53
2022-12-18T07:41:04.814Z,3.47
2022-12-18T07:43:34.741Z,4.20
2022-12-18T07:46:02.417Z,3.97
2022-12-18T07:48:30.088Z,4.60
2022-12-18T07:51:00.183Z,4.17
2022-12-18T07:53:29.130Z,3.40
2022-12-18T07:56:25.366Z,4.13
2022-12-18T07:58:45.232Z,4.03
2022-12-18T08:01:13.814Z,4.40
2022-12-18T08:03:42.587Z,4.00
2022-12-18T08:06:11.169Z,3.90
2022-12-18T08:08:41.518Z,3.80
2022-12-18T08:11:09.123Z,4.57
2022-12-18T08:13:37.112Z,3.47
2022-12-18T08:16:06.326Z,3.70
2022-12-18T08:18:34.344Z,4.73
2022-12-18T08:21:09.236Z,4.03
2022-12-18T08:23:42.349Z,4.33
2022-12-18T08:26:12.363Z,4.33
2022-12-18T08:28:40.108Z,4.53
2022-12-18T08:31:07.987Z,3.70
2022-12-18T08:33:35.812Z,3.53
2022-12-18T08:36:03.805Z,3.50
2022-12-18T08:38:32.093Z,2.87
2022-12-18T08:41:00.327Z,2.97
2022-12-18T08:43:38.515Z,3.30
2022-12-18T08:46:06.690Z,2.93
2022-12-18T08:48:34.321Z,4.17
2022-12-18T08:51:02.648Z,2.87
2022-12-18T08:53:34.159Z,4.00
2022-12-18T08:56:03.349Z,4.07
2022-12-18T08:58:32.569Z,4.57
2022-12-18T09:01:01.653Z,3.77
2022-12-18T09:03:29.420Z,4.57
2022-12-18T09:05:57.033Z,3.40
2022-12-18T09:08:24.807Z,4.50
2022-12-18T09:10:52.691Z,4.10
2022-12-18T09:13:20.312Z,4.03
2022-12-18T09:15:50.468Z,3.40
2022-12-18T09:18:19.323Z,3.47
2022-12-18T09:20:47.410Z,4.10
2022-12-18T09:23:15.413Z,4.07
2022-12-18T09:25:43.247Z,3.83
2022-12-18T09:28:12.623Z,4.00
2022-12-18T09:30:40.323Z,4.30
2022-12-18T09:33:09.721Z,4.90
2022-12-18T09:35:38.012Z,4.33
2022-12-18T09:38:05.676Z,4.03
2022-12-18T09:40:36.122Z,3.57
2022-12-18T09:43:07.333Z,3.80
2022-12-18T09:45:40.465Z,3.67
2022-12-18T09:48:12.275Z,3.40
2022-12-18T09:50:41.784Z,3.10
2022-12-18T09:53:15.033Z,3.23
2022-12-18T09:55:43.960Z,4.00
2022-12-18T09:58:16.421Z,3.53
2022-12-18T10:00:44.432Z,2.90
2022-12-18T10:03:15.415Z,3.40
2022-12-18T10:05:46.473Z,3.53
2022-12-18T10:08:20.048Z,3.43
2022-12-18T10:10:49.465Z,4.10
2022-12-18T10:13:23.325Z,3.73
2022-12-18T10:15:56.399Z,3.23
2022-12-18T10:18:30.173Z,3.00
2022-12-18T10:21:00.486Z,4.20
2022-12-18T10:23:30.264Z,3.73
2022-12-18T10:26:02.315Z,3.43
2022-12-18T10:28:31.568Z,3.80
2022-12-18T10:30:59.970Z,3.57
2022-12-18T10:33:31.125Z,3.70
2022-12-18T10:35:58.848Z,2.97
2022-12-18T10:38:27.576Z,3.33
2022-12-18T10:40:56.551Z,3.40
2022-12-18T10:43:26.347Z,2.80
2022-12-18T10:48:52.994Z,3.80
2022-12-18T10:51:22.753Z,3.30
2022-12-18T10:53:54.520Z,3.70
2022-12-18T10:56:22.858Z,3.53
2022-12-18T10:58:57.545Z,3.87
2022-12-18T11:01:25.370Z,3.83
2022-12-18T11:04:03.068Z,4.20
2022-12-18T11:06:31.254Z,3.57
2022-12-18T11:08:59.835Z,4.23
2022-12-18T11:11:27.610Z,3.10
2022-12-18T11:14:00.855Z,3.77
2022-12-18T11:16:29.830Z,4.10
2022-12-18T11:19:09.309Z,4.07
2022-12-18T11:21:43.122Z,3.67
2022-12-18T11:24:20.571Z,4.67
2022-12-18T11:26:52.663Z,3.67
2022-12-18T11:29:25.669Z,3.73
2022-12-18T11:31:53.327Z,3.97
2022-12-18T11:34:29.762Z,4.90
2022-12-18T11:37:00.537Z,5.17
2022-12-18T11:39:33.124Z,5.03
2022-12-18T11:42:13.374Z,4.50
2022-12-18T11:44:44.344Z,4.63
2022-12-18T11:47:15.649Z,4.57
2022-12-18T11:49:43.890Z,4.37
2022-12-18T11:52:17.530Z,5.40
2022-12-18T11:54:45.370Z,4.73
2022-12-18T11:57:17.743Z,4.33
2022-12-18T11:59:51.085Z,4.77
2022-12-18T12:02:25.170Z,4.33
2022-12-18T12:05:02.322Z,4.03
2022-12-18T12:07:38.722Z,5.17
2022-12-18T12:10:14.015Z,5.03
2022-12-18T12:12:49.293Z,5.57
2022-12-18T12:15:23.425Z,4.43
2022-12-18T12:17:53.135Z,4.77
2022-12-18T12:20:23.763Z,5.00
2022-12-18T12:23:00.560Z,5.10
2022-12-18T12:25:35.277Z,5.30
2022-12-18T12:28:07.675Z,4.87
2022-12-18T12:30:41.387Z,5.27
2022-12-18T12:33:14.224Z,4.90
2022-12-18T12:35:46.525Z,4.97
2022-12-18T12:38:17.973Z,5.00
2022-12-18T12:40:55.298Z,4.93
2022-12-18T12:43:29.632Z,5.20
2022-12-18T12:46:00.046Z,4.83
2022-12-18T12:48:34.910Z,5.60
2022-12-18T12:51:03.863Z,5.07
2022-12-18T12:53:34.751Z,5.13
2022-12-18T12:56:03.231Z,5.17
2022-12-18T12:58:34.080Z,4.50
2022-12-18T13:01:06.735Z,4.80
2022-12-18T13:03:37.928Z,5.47
2022-12-18T13:06:10.609Z,5.93
2022-12-18T13:11:41.915Z,5.30
2022-12-18T13:14:21.804Z,5.03
2022-12-18T13:16:49.965Z,5.23
2022-12-18T13:19:23.543Z,4.80
2022-12-18T13:21:55.197Z,5.27
2022-12-18T13:24:26.455Z,5.53
2022-12-18T13:26:55.629Z,5.50
2022-12-18T13:29:38.629Z,4.73
2022-12-18T13:32:20.784Z,5.27
2022-12-18T13:34:50.342Z,4.97
2022-12-18T13:37:32.952Z,5.47
2022-12-18T13:40:00.704Z,5.80
2022-12-18T13:42:48.245Z,4.90
2022-12-18T13:45:30.710Z,6.33
2022-12-18T13:48:00.200Z,5.93
2022-12-18T13:50:35.428Z,6.03
2022-12-18T13:53:05.057Z,5.47
2022-12-18T13:55:32.789Z,5.17
2022-12-18T13:58:05.186Z,5.40
2022-12-18T14:00:33.354Z,5.43
2022-12-18T14:03:02.705Z,5.03
2022-12-18T14:05:31.833Z,5.67
2022-12-18T14:08:02.616Z,4.90
2022-12-18T14:10:49.319Z,5.10
2022-12-18T14:13:20.712Z,4.60
2022-12-18T14:15:49.726Z,4.60
2022-12-18T14:18:21.828Z,4.87
2022-12-18T14:20:52.909Z,5.33
2022-12-18T14:23:30.094Z,6.00
2022-12-18T14:26:00.860Z,5.40
2022-12-18T14:28:33.193Z,5.40
2022-12-18T14:31:01.070Z,4.50
2022-12-18T14:33:29.964Z,4.73
2022-12-18T14:35:58.666Z,5.03
2022-12-18T14:38:27.679Z,4.53
2022-12-18T14:40:56.445Z,5.03
2022-12-18T14:43:24.396Z,5.40
2022-12-18T14:45:52.608Z,5.70
2022-12-18T14:48:23.534Z,6.17
2022-12-18T14:51:01.915Z,5.90
2022-12-18T14:53:35.049Z,5.73
2022-12-18T14:56:03.257Z,5.33
2022-12-18T14:58:31.101Z,6.20
2022-12-18T15:00:58.977Z,4.10
2022-12-18T15:03:26.968Z,4.93
2022-12-18T15:05:54.747Z,5.47
2022-12-18T15:08:31.884Z,6.43
2022-12-18T15:11:00.540Z,5.80
2022-12-18T15:13:29.328Z,5.80
2022-12-18T15:15:58.032Z,4.50
2022-12-18T15:18:29.642Z,4.53
2022-12-18T15:20:58.540Z,5.00
2022-12-18T15:23:27.243Z,5.33
2022-12-18T15:25:59.670Z,4.20
2022-12-18T15:28:28.526Z,5.00
2022-12-18T15:30:59.947Z,4.53
2022-12-18T15:33:29.015Z,4.13
2022-12-18T15:35:58.200Z,4.30
2022-12-18T15:38:25.838Z,4.37
2022-12-18T15:40:54.135Z,4.77
2022-12-18T15:43:33.681Z,4.90
2022-12-18T15:46:01.409Z,5.33
2022-12-18T15:48:29.258Z,4.50
2022-12-18T15:50:59.258Z,4.53
2022-12-18T15:53:29.553Z,4.40
2022-12-18T15:56:07.639Z,5.20
2022-12-18T15:58:37.510Z,4.97
2022-12-18T16:01:05.346Z,4.13
2022-12-18T16:03:33.473Z,4.47
2022-12-18T16:06:02.952Z,4.17
2022-12-18T16:08:31.797Z,4.87
2022-12-18T16:10:59.968Z,3.50
2022-12-18T16:13:27.644Z,4.20
2022-12-18T16:15:56.743Z,4.30
2022-12-18T16:18:24.406Z,4.00
2022-12-18T16:20:52.131Z,4.83
2022-12-18T16:23:19.767Z,4.80
2022-12-18T16:25:47.522Z,4.33
2022-12-18T16:28:15.466Z,3.80
2022-12-18T16:30:43.411Z,4.77
2022-12-18T16:33:12.965Z,4.63
2022-12-18T16:35:40.637Z,4.53
2022-12-18T16:38:08.229Z,5.23
2022-12-18T16:40:55.895Z,4.50
2022-12-18T16:43:23.543Z,4.57
2022-12-18T16:45:51.310Z,4.37
2022-12-18T16:48:20.897Z,5.30
2022-12-18T16:50:48.539Z,4.83
2022-12-18T16:53:16.156Z,5.80
2022-12-18T16:55:43.824Z,5.30
2022-12-18T16:58:11.911Z,5.00
2022-12-18T17:00:41.177Z,5.33
2022-12-18T17:03:09.002Z,4.50
2022-12-18T17:05:38.104Z,4.87
2022-12-18T17:08:06.120Z,5.30
2022-12-18T17:10:35.756Z,5.37
2022-12-18T17:13:03.445Z,5.70
2022-12-18T17:15:31.024Z,4.43
2022-12-18T17:17:58.559Z,5.20
2022-12-18T17:20:26.164Z,4.83
2022-12-18T17:22:55.004Z,5.20
2022-12-18T17:25:23.898Z,3.93
2022-12-18T17:27:53.064Z,5.53
2022-12-18T17:30:20.636Z,4.70
2022-12-18T17:32:48.232Z,5.63
2022-12-18T17:35:15.829Z,4.13
2022-12-18T17:37:43.730Z,6.07
2022-12-18T17:40:12.944Z,6.10
2022-12-18T17:42:40.700Z,4.73
2022-12-18T17:45:08.735Z,6.03
2022-12-18T17:47:36.462Z,6.23
2022-12-18T17:50:04.802Z,5.60
2022-12-18T17:52:32.428Z,5.83
2022-12-18T17:55:00.036Z,5.50
2022-12-18T17:57:28.974Z,5.70
2022-12-18T17:59:56.830Z,5.50
2022-12-18T18:02:24.799Z,6.47
2022-12-18T18:04:52.534Z,6.63
2022-12-18T18:07:20.141Z,4.93
2022-12-18T18:09:47.807Z,5.40
2022-12-18T18:12:25.381Z,5.77
2022-12-18T18:14:54.512Z,6.30
2022-12-18T18:17:22.163Z,5.47
2022-12-18T18:19:49.944Z,6.63
2022-12-18T18:22:17.646Z,7.20
2022-12-18T18:24:46.689Z,5.33
2022-12-18T18:27:14.851Z,4.70
2022-12-18T18:29:42.626Z,6.23
2022-12-18T18:32:11.735Z,6.70
2022-12-18T18:34:39.387Z,5.50
2022-12-18T18:37:07.631Z,5.60
2022-12-18T18:39:35.282Z,6.20
2022-12-18T18:42:03.088Z,6.77
2022-12-18T18:44:30.771Z,6.47
2022-12-18T18:46:58.591Z,5.37
2022-12-18T18:49:28.335Z,5.67
2022-12-18T18:51:56.643Z,7.13
2022-12-18T18:54:25.654Z,6.17
2022-12-18T18:57:19.310Z,7.57
2022-12-18T18:59:40.822Z,5.07
2022-12-18T19:02:10.392Z,6.47
2022-12-18T19:04:45.739Z,5.93
2022-12-18T19:07:20.340Z,6.40
2022-12-18T19:09:57.722Z,6.63
2022-12-18T19:12:43.234Z,6.03
2022-12-18T19:15:11.068Z,5.17
2022-12-18T19:17:41.548Z,5.30
2022-12-18T19:20:13.784Z,5.17
2022-12-18T19:22:41.485Z,5.40
2022-12-18T19:25:10.596Z,5.83
2022-12-18T19:27:38.881Z,4.80
2022-12-18T19:30:07.175Z,5.60
2022-12-18T19:32:35.351Z,4.90
2022-12-18T19:35:03.247Z,4.83
2022-12-18T19:37:33.054Z,5.43
2022-12-18T19:40:01.069Z,5.73
2022-12-18T19:42:35.511Z,5.27
2022-12-18T19:45:03.497Z,5.67
2022-12-18T19:47:31.306Z,5.33
2022-12-18T19:49:58.944Z,5.40
2022-12-18T19:52:26.637Z,5.57
2022-12-18T19:54:55.768Z,5.43
2022-12-18T19:57:23.425Z,5.03
2022-12-18T19:59:51.077Z,6.60
2022-12-18T20:02:21.081Z,5.50
2022-12-18T20:04:49.596Z,5.37
2022-12-18T20:07:17.188Z,5.27
2022-12-18T20:09:44.950Z,6.47
2022-12-18T20:12:14.730Z,5.83
2022-12-18T20:14:42.606Z,5.53
2022-12-18T20:17:10.542Z,5.57
2022-12-18T20:19:38.203Z,5.47
2022-12-18T20:22:06.938Z,5.27
2022-12-18T20:24:34.550Z,5.80
2022-12-18T20:27:02.544Z,6.57
2022-12-18T20:29:31.602Z,5.97
2022-12-18T20:31:59.546Z,6.10
2022-12-18T20:34:27.314Z,5.33
2022-12-18T20:36:54.920Z,5.33
2022-12-18T20:39:25.020Z,6.90
2022-12-18T20:41:53.500Z,6.20
2022-12-18T20:44:23.471Z,5.57
2022-12-18T20:46:53.910Z,4.67
2022-12-18T20:49:21.851Z,5.17
2022-12-18T20:51:51.202Z,4.20
2022-12-18T20:54:19.011Z,5.40
2022-12-18T20:56:46.871Z,5.47
2022-12-18T20:59:14.533Z,5.30
2022-12-18T21:01:48.596Z,5.20
2022-12-18T21:04:18.913Z,5.50
2022-12-18T21:06:50.965Z,6.37
2022-12-18T21:09:19.289Z,5.53
2022-12-18T21:11:58.463Z,5.40
2022-12-18T21:14:26.866Z,5.87
2022-12-18T21:16:54.594Z,6.83
2022-12-18T21:19:24.659Z,5.70
2022-12-18T21:21:53.403Z,5.17
2022-12-18T21:24:21.469Z,5.87
2022-12-18T21:26:49.623Z,7.03
2022-12-18T21:29:18.787Z,6.57
2022-12-18T21:31:46.719Z,5.87
2022-12-18T21:34:16.248Z,5.90
2022-12-18T21:36:45.583Z,6.27
2022-12-18T21:39:15.186Z,5.27
2022-12-18T21:41:53.209Z,5.00
2022-12-18T21:44:23.764Z,7.03
2022-12-18T21:46:57.415Z,6.73
2022-12-18T21:49:29.258Z,5.57
2022-12-18T21:51:58.828Z,7.23
2022-12-18T21:54:45.505Z,6.37
2022-12-18T21:57:14.131Z,5.87
2022-12-18T21:59:43.227Z,6.30
2022-12-18T22:02:13.009Z,5.07
2022-12-18T22:04:40.898Z,5.70
2022-12-18T22:07:10.363Z,5.30
2022-12-18T22:09:39.156Z,5.83
2022-12-18T22:12:07.002Z,6.60
2022-12-18T22:14:34.638Z,6.13
2022-12-18T22:17:02.230Z,5.27
2022-12-18T22:19:30.095Z,6.27
2022-12-18T22:22:17.573Z,6.73
2022-12-18T22:24:45.215Z,5.67
2022-12-18T22:27:12.887Z,5.43
2022-12-18T22:29:50.073Z,4.97
2022-12-18T22:32:22.105Z,5.13
2022-12-18T22:35:04.552Z,4.87
2022-12-18T22:37:35.057Z,6.17
2022-12-18T22:40:03.931Z,6.37
2022-12-18T22:42:31.693Z,6.27
2022-12-18T22:45:00.253Z,5.70
2022-12-18T22:47:30.146Z,5.73
2022-12-18T22:49:58.470Z,5.70
2022-12-18T22:52:26.206Z,6.13
2022-12-18T22:54:55.053Z,7.30
2022-12-18T22:57:22.716Z,8.83
2022-12-18T22:59:50.353Z,6.00
2022-12-18T23:02:20.051Z,5.73
2022-12-18T23:04:48.538Z,6.80
2022-12-18T23:07:16.286Z,6.27
2022-12-18T23:09:44.207Z,6.03
2022-12-18T23:12:17.778Z,5.33
2022-12-18T23:14:47.121Z,5.80
2022-12-18T23:17:14.742Z,6.10
2022-12-18T23:19:48.526Z,5.73
2022-12-18T23:22:16.735Z,5.97
2022-12-18T23:24:44.354Z,6.50
2022-12-18T23:27:12.332Z,6.20
2022-12-18T23:29:41.423Z,5.93
2022-12-18T23:32:09.104Z,6.37
2022-12-18T23:34:36.715Z,5.37
2022-12-18T23:37:04.530Z,4.83
2022-12-18T23:39:32.099Z,5.80
2022-12-18T23:42:00.191Z,6.87
2022-12-18T23:44:28.201Z,5.20
2022-12-18T23:46:57.157Z,5.20
2022-12-18T23:49:24.951Z,5.93
2022-12-18T23:51:54.763Z,5.40
2022-12-18T23:54:32.811Z,6.03
2022-12-18T23:57:01.324Z,5.33
2022-12-18T23:59:28.963Z,6.30
